^^
Datos históricos de la estación: Murcia-Puente Tocinos
Diario Informe para Mayo 10, 2019 Unidades:  Métrico    Inglés   Ambas
Diario Semanal Mensual Anual Configurable
  Máximo: Mínimo: Media:
Temperatura: 31.3 °C 20.0 °C 25.3 °C
Punto de rocio: 15.9 °C 12.6 °C 14 °C
Humedad: 71% 34% 51%
Velocidad viento: 20.1km/h 0.0km/h 7.4km/h
Racha viento: 33.3km/h - -
Viento- - South
Presión: 1013.3 hPa 1010.0 hPa -
Precipitación: 0.0 mm    
Historical Graphs
 
 
Tabla de datos para Mayo 10, 2019
Hora Temperatura Punto de rocio Presión Viento Velocidad viento Racha viento Humedad Intensidad lluvia(por hora) Nubes
00:00 22.4 °C 15.0 °C 1011.8 hPa NE 3.2 km/h 8.0 km/h 63% 0.0 mm CLR
00:05 22.2 °C 15.1 °C 1011.7 hPa NE 3.9 km/h 7.4 km/h 64% 0.0 mm CLR
00:10 22.1 °C 15.2 °C 1011.7 hPa NNE 3.2 km/h 7.4 km/h 65% 0.0 mm CLR
00:15 22.1 °C 15.2 °C 1011.7 hPa NE 3.2 km/h   65% 0.0 mm CLR
00:20 22.0 °C 15.3 °C 1011.8 hPa NE 2.3 km/h 3.7 km/h 66% 0.0 mm CLR
00:25 21.9 °C 15.3 °C 1011.8 hPa NNE 2.3 km/h   66% 0.0 mm CLR
00:30 21.9 °C 15.5 °C 1011.8 hPa Calm     67% 0.0 mm CLR
00:35 21.9 °C 15.7 °C 1011.9 hPa Calm     68% 0.0 mm CLR
00:40 21.8 °C 15.6 °C 1011.9 hPa Calm     68% 0.0 mm CLR
00:45 21.7 °C 15.8 °C 1011.9 hPa Calm     69% 0.0 mm CLR
00:50 21.7 °C 15.8 °C 1011.9 hPa Calm     69% 0.0 mm CLR
00:55 21.7 °C 15.8 °C 1011.9 hPa Calm   4.7 km/h 69% 0.0 mm CLR
01:00 21.7 °C 15.8 °C 1011.9 hPa Calm   4.8 km/h 69% 0.0 mm CLR
01:05 21.7 °C 15.8 °C 1011.8 hPa Calm   5.0 km/h 69% 0.0 mm CLR
01:10 21.6 °C 15.7 °C 1011.8 hPa NNE 2.9 km/h 7.4 km/h 69% 0.0 mm CLR
01:15 21.4 °C 15.7 °C 1011.8 hPa North 2.9 km/h 7.4 km/h 70% 0.0 mm CLR
01:20 21.4 °C 15.7 °C 1011.9 hPa North 3.9 km/h 3.7 km/h 70% 0.0 mm CLR
01:25 21.4 °C 15.9 °C 1011.9 hPa North 3.9 km/h 3.9 km/h 71% 0.0 mm CLR
01:30 21.3 °C 15.8 °C 1011.9 hPa North 1.6 km/h 4.8 km/h 71% 0.0 mm CLR
01:35 21.3 °C 15.8 °C 1011.9 hPa North 2.3 km/h   71% 0.0 mm CLR
01:40 21.3 °C 15.6 °C 1011.9 hPa Calm     70% 0.0 mm CLR
01:45 21.3 °C 15.8 °C 1011.9 hPa Calm   2.9 km/h 71% 0.0 mm CLR
01:50 21.3 °C 15.8 °C 1011.9 hPa Calm     71% 0.0 mm CLR
01:55 21.3 °C 15.6 °C 1011.9 hPa Calm     70% 0.0 mm CLR
02:00 21.3 °C 15.8 °C 1011.9 hPa Calm   3.2 km/h 71% 0.0 mm CLR
02:05 21.3 °C 15.8 °C 1011.7 hPa Calm     71% 0.0 mm CLR
02:10 21.3 °C 15.8 °C 1011.7 hPa Calm     71% 0.0 mm CLR
02:15 21.3 °C 15.8 °C 1011.7 hPa Calm   5.6 km/h 71% 0.0 mm CLR
02:20 21.3 °C 15.8 °C 1011.7 hPa Calm     71% 0.0 mm CLR
02:25 21.3 °C 15.6 °C 1011.7 hPa Calm   5.6 km/h 70% 0.0 mm CLR
02:30 21.3 °C 15.6 °C 1011.7 hPa South 2.9 km/h 5.6 km/h 70% 0.0 mm CLR
02:35 21.3 °C 15.8 °C 1011.6 hPa South 2.9 km/h   71% 0.0 mm CLR
02:40 21.2 °C 15.7 °C 1011.6 hPa NW 2.3 km/h 3.7 km/h 71% 0.0 mm CLR
02:45 21.0 °C 15.6 °C 1011.6 hPa NW 2.3 km/h   71% 0.0 mm CLR
02:50 20.9 °C 15.2 °C 1011.5 hPa SE 2.3 km/h 7.4 km/h 70% 0.0 mm CLR
02:55 20.9 °C 15.2 °C 1011.5 hPa SSE 2.3 km/h 7.4 km/h 70% 0.0 mm CLR
03:00 20.9 °C 15.0 °C 1011.5 hPa South 4.8 km/h 9.7 km/h 69% 0.0 mm CLR
03:05 20.9 °C 14.8 °C 1011.4 hPa SSW 5.0 km/h 8.7 km/h 68% 0.0 mm CLR
03:10 21.0 °C 14.6 °C 1011.4 hPa South 5.0 km/h 7.4 km/h 67% 0.0 mm CLR
03:15 21.0 °C 14.6 °C 1011.4 hPa SSE 5.0 km/h 7.4 km/h 67% 0.0 mm CLR
03:20 21.0 °C 14.6 °C 1011.4 hPa SSE 3.9 km/h   67% 0.0 mm CLR
03:25 21.0 °C 14.6 °C 1011.4 hPa SSW 3.9 km/h 5.6 km/h 67% 0.0 mm CLR
03:30 21.0 °C 14.4 °C 1011.4 hPa SW 2.3 km/h 3.7 km/h 66% 0.0 mm CLR
03:35 21.0 °C 14.4 °C 1011.3 hPa WSW 2.3 km/h   66% 0.0 mm CLR
03:40 21.0 °C 14.4 °C 1011.3 hPa Calm     66% 0.0 mm CLR
03:45 21.0 °C 14.4 °C 1011.3 hPa Calm     66% 0.0 mm CLR
03:50 20.9 °C 14.3 °C 1011.2 hPa Calm   7.4 km/h 66% 0.0 mm CLR
03:55 20.9 °C 14.3 °C 1011.2 hPa Calm   3.7 km/h 66% 0.0 mm CLR
04:00 21.0 °C 14.4 °C 1011.2 hPa WSW 3.2 km/h 4.8 km/h 66% 0.0 mm CLR
04:05 20.8 °C 14.7 °C 1011.5 hPa NW 3.9 km/h 7.4 km/h 68% 0.0 mm CLR
04:10 20.6 °C 14.5 °C 1011.5 hPa NW 2.9 km/h 5.8 km/h 68% 0.0 mm CLR
04:15 20.4 °C 14.1 °C 1011.5 hPa SSW 2.9 km/h 10.0 km/h 67% 0.0 mm CLR
04:20 20.7 °C 14.1 °C 1011.5 hPa South 5.8 km/h 9.3 km/h 66% 0.0 mm CLR
04:25 20.9 °C 14.1 °C 1011.5 hPa South 5.8 km/h 9.3 km/h 65% 0.0 mm CLR
04:30 21.0 °C 13.7 °C 1011.5 hPa South 6.9 km/h 11.1 km/h 63% 0.0 mm CLR
04:35 21.2 °C 13.6 °C 1011.4 hPa South 6.9 km/h 10.0 km/h 62% 0.0 mm CLR
04:40 21.3 °C 13.4 °C 1011.4 hPa SSW 8.4 km/h 13.0 km/h 61% 0.0 mm CLR
04:45 21.4 °C 13.3 °C 1011.4 hPa South 8.4 km/h 9.3 km/h 60% 0.0 mm CLR
04:50 21.4 °C 13.6 °C 1011.5 hPa SSW 7.6 km/h 7.6 km/h 61% 0.0 mm CLR
04:55 21.3 °C 13.4 °C 1011.5 hPa South 7.6 km/h 7.4 km/h 61% 0.0 mm CLR
05:00 21.3 °C 13.7 °C 1011.5 hPa SSW 4.8 km/h 8.0 km/h 62% 0.0 mm CLR
05:05 21.2 °C 13.9 °C 1011.5 hPa SW 5.0 km/h 3.7 km/h 63% 0.0 mm CLR
05:10 21.1 °C 14.0 °C 1011.5 hPa SW 3.2 km/h 3.9 km/h 64% 0.0 mm CLR
05:15 20.9 °C 14.1 °C 1011.5 hPa SE 3.2 km/h 7.4 km/h 65% 0.0 mm CLR
05:20 20.6 °C 14.0 °C 1011.5 hPa South 3.9 km/h 9.3 km/h 66% 0.0 mm CLR
05:25 20.3 °C 13.9 °C 1011.5 hPa South 3.9 km/h 7.4 km/h 67% 0.0 mm CLR
05:30 20.1 °C 13.8 °C 1011.5 hPa SSE 5.8 km/h 7.6 km/h 67% 0.0 mm CLR
05:35 20.0 °C 13.9 °C 1011.6 hPa SSE 5.8 km/h 7.4 km/h 68% 0.0 mm CLR
05:40 20.0 °C 13.7 °C 1011.6 hPa SSE 5.8 km/h 5.6 km/h 67% 0.0 mm CLR
05:45 20.1 °C 13.8 °C 1011.6 hPa SSE 5.8 km/h 5.6 km/h 67% 0.0 mm CLR
05:50 20.2 °C 13.7 °C 1011.6 hPa South 4.7 km/h 9.3 km/h 66% 0.0 mm CLR
05:55 20.3 °C 13.5 °C 1011.6 hPa South 4.7 km/h 7.4 km/h 65% 0.0 mm CLR
06:00 20.4 °C 13.6 °C 1011.6 hPa South 4.8 km/h 9.7 km/h 65% 0.0 mm CLR
06:05 20.6 °C 13.6 °C 1011.6 hPa South 5.8 km/h 9.5 km/h 64% 0.0 mm CLR
06:10 20.7 °C 13.7 °C 1011.6 hPa SSW 7.6 km/h 9.3 km/h 64% 0.0 mm CLR
06:15 20.7 °C 13.7 °C 1011.6 hPa SSW 7.6 km/h 7.4 km/h 64% 0.0 mm CLR
06:20 20.7 °C 13.7 °C 1011.6 hPa SSW 5.8 km/h 7.4 km/h 64% 0.0 mm CLR
06:25 20.7 °C 13.7 °C 1011.6 hPa SW 5.8 km/h 7.4 km/h 64% 0.0 mm CLR
06:30 20.7 °C 13.7 °C 1011.6 hPa SW 5.0 km/h 11.1 km/h 64% 0.0 mm CLR
06:35 20.7 °C 13.4 °C 1011.6 hPa SW 5.0 km/h 7.4 km/h 63% 0.0 mm CLR
06:40 20.7 °C 13.4 °C 1011.6 hPa SW 5.8 km/h 7.4 km/h 63% 0.0 mm CLR
06:45 20.7 °C 13.4 °C 1011.6 hPa SW 5.8 km/h 7.4 km/h 63% 0.0 mm CLR
06:50 20.8 °C 13.3 °C 1011.6 hPa SSW 5.8 km/h 9.3 km/h 62% 0.0 mm CLR
06:55 20.8 °C 13.5 °C 1011.6 hPa SW 5.8 km/h 7.4 km/h 63% 0.0 mm CLR
07:00 20.7 °C 13.2 °C 1011.6 hPa SW 4.8 km/h 9.7 km/h 62% 0.0 mm CLR
07:05 20.8 °C 13.3 °C 1011.8 hPa SW 5.8 km/h 7.6 km/h 62% 0.0 mm CLR
07:10 20.8 °C 13.0 °C 1011.8 hPa SW 4.7 km/h 7.4 km/h 61% 0.0 mm CLR
07:15 20.8 °C 13.0 °C 1011.8 hPa WSW 4.7 km/h 7.4 km/h 61% 0.0 mm CLR
07:20 20.8 °C 12.7 °C 1012.1 hPa SW 4.7 km/h 8.4 km/h 60% 0.0 mm CLR
07:25 20.8 °C 12.7 °C 1012.1 hPa SW 4.7 km/h 13.0 km/h 60% 0.0 mm CLR
07:30 20.9 °C 12.8 °C 1012.1 hPa SW 6.4 km/h 7.6 km/h 60% 0.0 mm CLR
07:35 20.8 °C 12.7 °C 1012.2 hPa SW 6.4 km/h 9.3 km/h 60% 0.0 mm CLR
07:40 20.8 °C 12.7 °C 1012.2 hPa SSW 5.8 km/h 11.1 km/h 60% 0.0 mm CLR
07:45 20.9 °C 12.6 °C 1012.2 hPa WSW 5.8 km/h 9.3 km/h 59% 0.0 mm CLR
07:50 21.0 °C 12.7 °C 1012.2 hPa SW 6.4 km/h 9.3 km/h 59% 0.0 mm CLR
07:55 21.2 °C 12.9 °C 1012.2 hPa WSW 6.4 km/h 7.4 km/h 59% 0.0 mm CLR
08:00 21.3 °C 12.7 °C 1012.2 hPa SW 8.0 km/h 11.3 km/h 58% 0.0 mm CLR
08:05 21.5 °C 12.6 °C 1012.3 hPa WSW 6.9 km/h 9.3 km/h 57% 0.0 mm CLR
08:10 21.7 °C 12.8 °C 1012.3 hPa WSW 6.9 km/h 7.4 km/h 57% 0.0 mm CLR
08:15 21.8 °C 12.9 °C 1012.3 hPa WSW 6.9 km/h 7.4 km/h 57% 0.0 mm CLR
08:20 21.9 °C 12.7 °C 1012.4 hPa SSW 3.9 km/h 7.6 km/h 56% 0.0 mm CLR
08:25 22.0 °C 12.8 °C 1012.4 hPa SSW 3.9 km/h 9.3 km/h 56% 0.0 mm CLR
08:30 22.1 °C 12.9 °C 1012.4 hPa SW 5.8 km/h 7.4 km/h 56% 0.0 mm CLR
08:35 22.2 °C 13.0 °C 1012.5 hPa SW 5.8 km/h 7.4 km/h 56% 0.0 mm CLR
08:40 22.2 °C 13.0 °C 1012.5 hPa SW 5.8 km/h 11.1 km/h 56% 0.0 mm CLR
08:45 22.2 °C 13.3 °C 1012.5 hPa SSW 5.8 km/h 7.4 km/h 57% 0.0 mm CLR
08:50 22.3 °C 13.1 °C 1012.6 hPa SSW 7.6 km/h 11.1 km/h 56% 0.0 mm CLR
08:55 22.5 °C 13.3 °C 1012.6 hPa WSW 7.6 km/h 8.4 km/h 56% 0.0 mm CLR
09:00 22.6 °C 13.4 °C 1012.6 hPa SW 8.0 km/h 14.5 km/h 56% 0.0 mm CLR
09:05 22.9 °C 13.4 °C 1012.7 hPa SSW 6.4 km/h 11.1 km/h 55% 0.0 mm CLR
09:10 23.0 °C 13.4 °C 1012.7 hPa SW 6.9 km/h 11.1 km/h 55% 0.0 mm CLR
09:15 23.2 °C 13.7 °C 1012.7 hPa SSW 6.9 km/h 11.1 km/h 55% 0.0 mm CLR
09:20 23.3 °C 13.8 °C 1012.8 hPa SW 8.7 km/h 11.1 km/h 55% 0.0 mm CLR
09:25 23.4 °C 13.8 °C 1012.8 hPa West 8.7 km/h 7.4 km/h 55% 0.0 mm CLR
09:30 23.6 °C 14.1 °C 1012.8 hPa SW 6.9 km/h 20.4 km/h 55% 0.0 mm CLR
09:35 23.7 °C 14.1 °C 1012.9 hPa SW 6.9 km/h 14.8 km/h 55% 0.0 mm CLR
09:40 23.8 °C 14.2 °C 1012.9 hPa WNW 8.7 km/h 18.5 km/h 55% 0.0 mm CLR
09:45 23.9 °C 14.3 °C 1012.9 hPa West 8.7 km/h 24.1 km/h 55% 0.0 mm CLR
09:50 24.1 °C 14.5 °C 1012.8 hPa West 12.2 km/h 25.9 km/h 55% 0.0 mm CLR
09:55 24.0 °C 14.4 °C 1012.8 hPa West 12.2 km/h 16.7 km/h 55% 0.0 mm CLR
10:00 24.1 °C 14.5 °C 1012.8 hPa WNW 12.9 km/h 19.3 km/h 55% 0.0 mm CLR
10:05 24.2 °C 14.3 °C 1012.8 hPa WSW 13.0 km/h 13.0 km/h 54% 0.0 mm CLR
10:10 24.3 °C 14.4 °C 1012.8 hPa WNW 10.3 km/h 16.7 km/h 54% 0.0 mm CLR
10:15 24.3 °C 14.1 °C 1012.8 hPa WSW 10.3 km/h 11.1 km/h 53% 0.0 mm CLR
10:20 24.4 °C 14.5 °C 1012.9 hPa South 8.7 km/h 9.3 km/h 54% 0.0 mm CLR
10:25 24.7 °C 14.5 °C 1012.9 hPa WSW 8.7 km/h 12.2 km/h 53% 0.0 mm CLR
10:30 24.8 °C 14.3 °C 1012.9 hPa WSW 7.6 km/h 16.7 km/h 52% 0.0 mm CLR
10:35 24.8 °C 14.3 °C 1012.8 hPa WSW 7.6 km/h 14.8 km/h 52% 0.0 mm CLR
10:40 24.9 °C 14.4 °C 1012.8 hPa WNW 9.5 km/h 7.4 km/h 52% 0.0 mm CLR
10:45 25.0 °C 14.4 °C 1012.8 hPa NNW 9.5 km/h 13.0 km/h 52% 0.0 mm CLR
10:50 25.1 °C 14.3 °C 1012.9 hPa SW 6.9 km/h 11.1 km/h 51% 0.0 mm CLR
10:55 25.2 °C 14.3 °C 1012.9 hPa NNW 6.9 km/h 9.3 km/h 51% 0.0 mm CLR
11:00 25.3 °C 14.1 °C 1012.9 hPa WSW 8.0 km/h 17.7 km/h 50% 0.0 mm CLR
11:05 25.6 °C 14.4 °C 1012.9 hPa West 6.4 km/h 13.0 km/h 50% 0.0 mm CLR
11:10 25.7 °C 14.5 °C 1012.9 hPa West 8.4 km/h 18.5 km/h 50% 0.0 mm CLR
11:15 25.7 °C 14.5 °C 1012.9 hPa WSW 8.4 km/h 9.5 km/h 50% 0.0 mm CLR
11:20 25.7 °C 14.5 °C 1013.0 hPa NW 6.9 km/h 7.4 km/h 50% 0.0 mm CLR
11:25 25.9 °C 14.4 °C 1013.0 hPa West 6.9 km/h 14.8 km/h 49% 0.0 mm CLR
11:30 25.8 °C 14.3 °C 1013.0 hPa WSW 8.4 km/h 11.1 km/h 49% 0.0 mm CLR
11:35 25.8 °C 14.3 °C 1013.0 hPa SSW 8.4 km/h 9.3 km/h 49% 0.0 mm CLR
11:40 26.0 °C 14.4 °C 1013.0 hPa NE 5.8 km/h 9.3 km/h 49% 0.0 mm CLR
11:45 26.5 °C 14.6 °C 1013.0 hPa WNW 5.8 km/h 11.1 km/h 48% 0.0 mm CLR
11:50 26.7 °C 14.8 °C 1012.8 hPa NNE 4.7 km/h 11.1 km/h 48% 0.0 mm CLR
11:55 27.0 °C 14.7 °C 1012.8 hPa WSW 4.7 km/h 9.3 km/h 47% 0.0 mm CLR
12:00 27.1 °C 14.2 °C 1012.8 hPa WNW 4.8 km/h 12.9 km/h 45% 0.0 mm CLR
12:05 27.1 °C 13.8 °C 1012.8 hPa SE 5.0 km/h 14.8 km/h 44% 0.0 mm CLR
12:10 27.3 °C 14.0 °C 1012.8 hPa WNW 5.8 km/h 9.3 km/h 44% 0.0 mm CLR
12:15 27.4 °C 13.7 °C 1012.8 hPa West 5.8 km/h 16.7 km/h 43% 0.0 mm CLR
12:20 27.4 °C 13.3 °C 1012.6 hPa West 6.4 km/h 13.0 km/h 42% 0.0 mm CLR
12:25 27.3 °C 13.6 °C 1012.6 hPa West 6.4 km/h 13.0 km/h 43% 0.0 mm CLR
12:30 27.2 °C 13.6 °C 1012.6 hPa NE 8.4 km/h 5.8 km/h 43% 0.0 mm CLR
12:35 27.4 °C 13.7 °C 1012.6 hPa NNE 8.4 km/h 5.6 km/h 43% 0.0 mm CLR
12:40 27.8 °C 13.7 °C 1012.6 hPa WNW 3.2 km/h 7.4 km/h 42% 0.0 mm CLR
12:45 27.9 °C 13.8 °C 1012.6 hPa ESE 3.2 km/h 11.1 km/h 42% 0.0 mm CLR
12:50 27.8 °C 13.7 °C 1012.3 hPa NW 8.4 km/h 13.7 km/h 42% 0.0 mm CLR
12:55 27.7 °C 13.6 °C 1012.3 hPa NNW 8.4 km/h 11.1 km/h 42% 0.0 mm CLR
13:00 27.8 °C 13.7 °C 1012.3 hPa NNW 9.7 km/h 16.1 km/h 42% 0.0 mm CLR
13:05 27.9 °C 13.8 °C 1012.3 hPa NE 10.0 km/h 11.1 km/h 42% 0.0 mm CLR
13:10 28.1 °C 13.6 °C 1012.3 hPa East 6.4 km/h 13.0 km/h 41% 0.0 mm CLR
13:15 28.3 °C 13.8 °C 1012.3 hPa SW 6.4 km/h 9.3 km/h 41% 0.0 mm CLR
13:20 28.6 °C 13.7 °C 1012.1 hPa West 6.9 km/h 16.7 km/h 40% 0.0 mm CLR
13:25 28.7 °C 13.8 °C 1012.1 hPa WSW 6.9 km/h 5.6 km/h 40% 0.0 mm CLR
13:30 28.9 °C 13.9 °C 1012.1 hPa WSW 5.0 km/h 13.0 km/h 40% 0.0 mm CLR
13:35 29.3 °C 13.9 °C 1011.9 hPa West 5.0 km/h 9.3 km/h 39% 0.0 mm CLR
13:40 29.3 °C 13.9 °C 1011.9 hPa West 6.4 km/h 10.3 km/h 39% 0.0 mm CLR
13:45 29.4 °C 14.0 °C 1011.9 hPa WNW 6.4 km/h 7.4 km/h 39% 0.0 mm CLR
13:50 29.4 °C 13.6 °C 1011.8 hPa WSW 5.8 km/h 9.3 km/h 38% 0.0 mm CLR
13:55 29.6 °C 13.8 °C 1011.8 hPa ESE 5.8 km/h 13.0 km/h 38% 0.0 mm CLR
14:00 29.6 °C 13.8 °C 1011.8 hPa SE 8.0 km/h 12.9 km/h 38% 0.0 mm CLR
14:05 29.7 °C 13.9 °C 1011.6 hPa SE 6.4 km/h 13.0 km/h 38% 0.0 mm CLR
14:10 29.7 °C 13.9 °C 1011.6 hPa ESE 6.9 km/h 11.1 km/h 38% 0.0 mm CLR
14:15 29.7 °C 13.9 °C 1011.6 hPa WNW 6.9 km/h 7.4 km/h 38% 0.0 mm CLR
14:20 29.8 °C 13.9 °C 1011.4 hPa WNW 6.9 km/h 14.8 km/h 38% 0.0 mm CLR
14:25 29.9 °C 13.6 °C 1011.4 hPa WSW 6.9 km/h 13.0 km/h 37% 0.0 mm CLR
14:30 29.9 °C 13.6 °C 1011.4 hPa South 9.5 km/h 14.8 km/h 37% 0.0 mm CLR
14:35 30.1 °C 13.8 °C 1011.2 hPa ESE 9.5 km/h 13.0 km/h 37% 0.0 mm CLR
14:40 30.3 °C 14.0 °C 1011.2 hPa WNW 7.6 km/h 7.4 km/h 37% 0.0 mm CLR
14:45 30.5 °C 13.7 °C 1011.2 hPa NW 7.6 km/h 7.4 km/h 36% 0.0 mm CLR
14:50 30.9 °C 14.1 °C 1011.1 hPa East 4.7 km/h 11.1 km/h 36% 0.0 mm CLR
14:55 30.8 °C 13.6 °C 1011.1 hPa NE 4.7 km/h 7.4 km/h 35% 0.0 mm CLR
15:00 30.9 °C 13.7 °C 1011.1 hPa ESE 4.8 km/h 11.3 km/h 35% 0.0 mm CLR
15:05 30.9 °C 13.7 °C 1010.9 hPa SSE 5.8 km/h 13.0 km/h 35% 0.0 mm CLR
15:10 30.8 °C 13.6 °C 1010.9 hPa South 6.9 km/h 7.4 km/h 35% 0.0 mm CLR
15:15 31.0 °C 13.7 °C 1010.9 hPa NE 6.9 km/h 7.4 km/h 35% 0.0 mm CLR
15:20 30.9 °C 14.1 °C 1010.8 hPa SE 7.6 km/h 24.1 km/h 36% 0.0 mm CLR
15:25 31.1 °C 14.3 °C 1010.8 hPa South 7.6 km/h 18.5 km/h 36% 0.0 mm CLR
15:30 31.0 °C 14.2 °C 1010.8 hPa SE 14.8 km/h 22.2 km/h 36% 0.0 mm CLR
15:35 31.1 °C 14.3 °C 1010.6 hPa ESE 14.8 km/h 22.2 km/h 36% 0.0 mm CLR
15:40 31.0 °C 14.2 °C 1010.6 hPa ESE 13.7 km/h 27.8 km/h 36% 0.0 mm CLR
15:45 31.0 °C 13.7 °C 1010.6 hPa SE 13.7 km/h 27.8 km/h 35% 0.0 mm CLR
15:50 30.9 °C 13.7 °C 1010.6 hPa ESE 18.3 km/h 25.9 km/h 35% 0.0 mm CLR
15:55 31.0 °C 14.2 °C 1010.6 hPa SE 18.3 km/h 21.7 km/h 36% 0.0 mm CLR
16:00 31.1 °C 13.8 °C 1010.6 hPa ESE 14.5 km/h 30.6 km/h 35% 0.0 mm CLR
16:05 30.7 °C 13.9 °C 1010.7 hPa SSE 15.6 km/h 26.2 km/h 36% 0.0 mm CLR
16:10 31.1 °C 13.8 °C 1010.7 hPa SE 18.0 km/h 24.5 km/h 35% 0.0 mm CLR
16:15 31.2 °C 13.9 °C 1010.7 hPa SSW 18.0 km/h 24.1 km/h 35% 0.0 mm CLR
16:20 31.2 °C 13.9 °C 1010.6 hPa SSE 16.4 km/h 17.2 km/h 35% 0.0 mm CLR
16:25 30.9 °C 13.7 °C 1010.6 hPa SSE 16.4 km/h 18.5 km/h 35% 0.0 mm CLR
16:30 31.2 °C 13.9 °C 1010.6 hPa SSW 14.0 km/h 22.2 km/h 35% 0.0 mm CLR
16:35 31.3 °C 14.0 °C 1010.4 hPa South 14.0 km/h 22.2 km/h 35% 0.0 mm CLR
16:40 31.3 °C 13.6 °C 1010.4 hPa South 14.8 km/h 29.6 km/h 34% 0.0 mm CLR
16:45 30.9 °C 13.7 °C 1010.4 hPa SSE 14.8 km/h 27.8 km/h 35% 0.0 mm CLR
16:50 30.8 °C 13.6 °C 1010.3 hPa SE 19.0 km/h 25.9 km/h 35% 0.0 mm CLR
16:55 30.8 °C 13.6 °C 1010.3 hPa SE 19.0 km/h 24.1 km/h 35% 0.0 mm CLR
17:00 30.9 °C 13.7 °C 1010.3 hPa SSE 16.1 km/h 27.4 km/h 35% 0.0 mm CLR
17:05 30.8 °C 13.6 °C 1010.4 hPa South 17.2 km/h 25.9 km/h 35% 0.0 mm CLR
17:10 31.1 °C 13.8 °C 1010.4 hPa SE 16.4 km/h 25.1 km/h 35% 0.0 mm CLR
17:15 30.9 °C 13.7 °C 1010.4 hPa SSE 16.4 km/h 24.1 km/h 35% 0.0 mm CLR
17:20 30.8 °C 13.6 °C 1010.3 hPa SSW 16.4 km/h 27.8 km/h 35% 0.0 mm CLR
17:25 30.7 °C 13.9 °C 1010.3 hPa SSE 16.4 km/h 25.9 km/h 36% 0.0 mm CLR
17:30 30.9 °C 14.1 °C 1010.3 hPa SSW 18.3 km/h 25.9 km/h 36% 0.0 mm CLR
17:35 30.7 °C 13.9 °C 1010.2 hPa SSE 19.3 km/h 30.6 km/h 36% 0.0 mm CLR
17:40 30.5 °C 13.7 °C 1010.2 hPa South 20.1 km/h 25.9 km/h 36% 0.0 mm CLR
17:45 30.6 °C 13.8 °C 1010.2 hPa SSE 20.1 km/h 29.6 km/h 36% 0.0 mm CLR
17:50 30.6 °C 13.8 °C 1010.2 hPa South 19.0 km/h 23.7 km/h 36% 0.0 mm CLR
17:55 30.8 °C 14.0 °C 1010.2 hPa SE 19.0 km/h 20.4 km/h 36% 0.0 mm CLR
18:00 30.8 °C 14.0 °C 1010.2 hPa SE 16.1 km/h 25.7 km/h 36% 0.0 mm CLR
18:05 30.6 °C 13.8 °C 1010.2 hPa SSE 16.1 km/h 29.6 km/h 36% 0.0 mm CLR
18:10 30.3 °C 13.6 °C 1010.2 hPa SSE 19.0 km/h 33.3 km/h 36% 0.0 mm CLR
18:15 30.3 °C 13.6 °C 1010.2 hPa SW 19.0 km/h 29.6 km/h 36% 0.0 mm CLR
18:20 30.2 °C 13.5 °C 1010.2 hPa SSE 20.1 km/h 25.9 km/h 36% 0.0 mm CLR
18:25 30.2 °C 13.9 °C 1010.2 hPa SE 20.1 km/h 27.8 km/h 37% 0.0 mm CLR
18:30 30.2 °C 13.9 °C 1010.2 hPa ESE 19.0 km/h 24.1 km/h 37% 0.0 mm CLR
18:35 30.2 °C 13.9 °C 1010.1 hPa South 19.0 km/h 24.1 km/h 37% 0.0 mm CLR
18:40 30.2 °C 13.9 °C 1010.1 hPa South 18.0 km/h 25.9 km/h 37% 0.0 mm CLR
18:45 30.1 °C 13.8 °C 1010.1 hPa SE 18.0 km/h 25.9 km/h 37% 0.0 mm CLR
18:50 30.1 °C 13.8 °C 1010.1 hPa SSE 17.2 km/h 25.9 km/h 37% 0.0 mm CLR
18:55 30.1 °C 13.8 °C 1010.1 hPa South 17.2 km/h 22.2 km/h 37% 0.0 mm CLR
19:00 30.3 °C 13.9 °C 1010.1 hPa SSE 14.5 km/h 22.5 km/h 37% 0.0 mm CLR
19:05 30.2 °C 13.9 °C 1010.0 hPa SSE 14.8 km/h 27.8 km/h 37% 0.0 mm CLR
19:10 29.9 °C 13.6 °C 1010.0 hPa SSE 14.0 km/h 20.4 km/h 37% 0.0 mm CLR
19:15 29.7 °C 13.9 °C 1010.0 hPa SE 14.0 km/h 22.2 km/h 38% 0.0 mm CLR
19:20 29.5 °C 13.7 °C 1010.1 hPa SE 13.7 km/h 22.2 km/h 38% 0.0 mm CLR
19:25 29.3 °C 13.5 °C 1010.1 hPa SE 13.7 km/h 14.8 km/h 38% 0.0 mm CLR
19:30 29.3 °C 13.9 °C 1010.1 hPa ESE 13.7 km/h 14.8 km/h 39% 0.0 mm CLR
19:35 29.1 °C 13.7 °C 1010.1 hPa ESE 13.7 km/h 18.5 km/h 39% 0.0 mm CLR
19:40 29.0 °C 13.7 °C 1010.1 hPa ESE 10.3 km/h 16.7 km/h 39% 0.0 mm CLR
19:45 28.9 °C 13.6 °C 1010.1 hPa SE 10.3 km/h 16.7 km/h 39% 0.0 mm CLR
19:50 28.9 °C 13.6 °C 1010.3 hPa SE 10.3 km/h 20.4 km/h 39% 0.0 mm CLR
19:55 28.8 °C 13.4 °C 1010.3 hPa SSE 10.3 km/h 16.7 km/h 39% 0.0 mm CLR
20:00 28.7 °C 13.4 °C 1010.3 hPa SE 11.3 km/h 14.5 km/h 39% 0.0 mm CLR
20:05 28.4 °C 13.5 °C 1010.4 hPa SE 10.3 km/h 14.8 km/h 40% 0.0 mm CLR
20:10 28.4 °C 13.5 °C 1010.4 hPa SE 9.5 km/h 13.7 km/h 40% 0.0 mm CLR
20:15 28.5 °C 13.6 °C 1010.4 hPa ESE 9.5 km/h 9.3 km/h 40% 0.0 mm CLR
20:20 28.4 °C 13.5 °C 1010.5 hPa ESE 8.4 km/h 11.1 km/h 40% 0.0 mm CLR
20:25 28.4 °C 13.5 °C 1010.5 hPa East 8.4 km/h 10.0 km/h 40% 0.0 mm CLR
20:30 28.3 °C 13.4 °C 1010.5 hPa SSE 6.4 km/h 13.0 km/h 40% 0.0 mm CLR
20:35 28.1 °C 13.6 °C 1010.7 hPa SE 6.4 km/h 11.1 km/h 41% 0.0 mm CLR
20:40 27.9 °C 13.4 °C 1010.7 hPa ESE 8.4 km/h 11.9 km/h 41% 0.0 mm CLR
20:45 27.7 °C 13.6 °C 1010.7 hPa ESE 8.4 km/h 11.1 km/h 42% 0.0 mm CLR
20:50 27.5 °C 13.4 °C 1010.9 hPa ESE 8.7 km/h 13.0 km/h 42% 0.0 mm CLR
20:55 27.2 °C 13.6 °C 1010.9 hPa SE 8.7 km/h 13.0 km/h 43% 0.0 mm CLR
21:00 27.2 °C 13.6 °C 1010.9 hPa ESE 9.7 km/h 12.9 km/h 43% 0.0 mm CLR
21:05 27.0 °C 13.7 °C 1011.2 hPa East 9.5 km/h 7.4 km/h 44% 0.0 mm CLR
21:10 26.9 °C 13.6 °C 1011.2 hPa ENE 5.8 km/h 9.3 km/h 44% 0.0 mm CLR
21:15 26.7 °C 13.4 °C 1011.2 hPa East 5.8 km/h 13.0 km/h 44% 0.0 mm CLR
21:20 26.6 °C 13.7 °C 1011.4 hPa East 7.6 km/h 11.1 km/h 45% 0.0 mm CLR
21:25 26.4 °C 13.5 °C 1011.4 hPa SE 7.6 km/h 11.1 km/h 45% 0.0 mm CLR
21:30 26.3 °C 13.4 °C 1011.4 hPa SE 6.4 km/h 11.1 km/h 45% 0.0 mm CLR
21:35 26.2 °C 13.7 °C 1011.7 hPa ESE 6.4 km/h 11.1 km/h 46% 0.0 mm CLR
21:40 26.1 °C 13.6 °C 1011.7 hPa East 6.4 km/h 7.6 km/h 46% 0.0 mm CLR
21:45 25.9 °C 13.4 °C 1011.7 hPa ESE 6.4 km/h 13.0 km/h 46% 0.0 mm CLR
21:50 25.8 °C 13.3 °C 1011.9 hPa ESE 6.4 km/h 14.8 km/h 46% 0.0 mm CLR
21:55 25.8 °C 13.6 °C 1011.9 hPa ESE 6.4 km/h 9.3 km/h 47% 0.0 mm CLR
22:00 25.7 °C 13.6 °C 1011.9 hPa ESE 8.0 km/h 11.3 km/h 47% 0.0 mm CLR
22:05 25.6 °C 13.4 °C 1012.1 hPa SE 7.6 km/h 7.4 km/h 47% 0.0 mm CLR
22:10 25.6 °C 13.4 °C 1012.1 hPa ESE 5.8 km/h 9.3 km/h 47% 0.0 mm CLR
22:15 25.5 °C 13.7 °C 1012.1 hPa ESE 5.8 km/h 9.5 km/h 48% 0.0 mm CLR
22:20 25.4 °C 13.6 °C 1012.3 hPa ESE 6.9 km/h 11.1 km/h 48% 0.0 mm CLR
22:25 25.3 °C 13.5 °C 1012.3 hPa ESE 6.9 km/h 11.1 km/h 48% 0.0 mm CLR
22:30 25.3 °C 13.5 °C 1012.3 hPa ESE 6.9 km/h 7.4 km/h 48% 0.0 mm CLR
22:35 25.3 °C 13.8 °C 1012.6 hPa ESE 6.9 km/h 3.7 km/h 49% 0.0 mm CLR
22:40 25.3 °C 13.8 °C 1012.6 hPa ESE 3.2 km/h   49% 0.0 mm CLR
22:45 25.2 °C 13.7 °C 1012.6 hPa ESE 3.2 km/h   49% 0.0 mm CLR
22:50 25.1 °C 13.6 °C 1012.7 hPa WNW 2.3 km/h 3.7 km/h 49% 0.0 mm CLR
22:55 25.1 °C 13.9 °C 1012.7 hPa WNW 2.3 km/h 3.9 km/h 50% 0.0 mm CLR
23:00 25.0 °C 13.8 °C 1012.7 hPa WNW 1.6 km/h 4.8 km/h 50% 0.0 mm CLR
23:05 24.9 °C 13.8 °C 1013.0 hPa NW 2.3 km/h   50% 0.0 mm CLR
23:10 24.8 °C 13.7 °C 1013.0 hPa Calm     50% 0.0 mm CLR
23:15 24.8 °C 13.7 °C 1013.0 hPa Calm     50% 0.0 mm CLR
23:20 24.8 °C 14.0 °C 1013.1 hPa Calm   5.6 km/h 51% 0.0 mm CLR
23:25 24.7 °C 13.9 °C 1013.1 hPa Calm     51% 0.0 mm CLR
23:30 24.6 °C 13.8 °C 1013.1 hPa Calm     51% 0.0 mm CLR
23:35 24.6 °C 13.8 °C 1013.2 hPa Calm     51% 0.0 mm CLR
23:40 24.5 °C 13.7 °C 1013.2 hPa Calm   3.7 km/h 51% 0.0 mm CLR
23:45 24.6 °C 14.1 °C 1013.2 hPa Calm   5.6 km/h 52% 0.0 mm CLR
23:50 24.6 °C 14.1 °C 1013.3 hPa South 3.2 km/h 7.4 km/h 52% 0.0 mm CLR
23:55 24.6 °C 14.1 °C 1013.3 hPa SSW 3.2 km/h 7.4 km/h 52% 0.0 mm CLR
Murcia-Puente Tocinos, España
Compliments of Weather Underground - 2.75 mb

La estación de MeteoMurcia.com, publica sus datos en los siguientes proyectos:

Weather Underground PWS IMURCIAP2 Meteoclimatic www.awekas.at

W3Counter
Web Analytics